createdAt,value
2017-02-02T00:00:20.138Z,20.83
2017-02-02T00:01:00.635Z,20.79
2017-02-02T00:01:41.114Z,20.85
2017-02-02T00:02:21.609Z,20.78
2017-02-02T00:03:02.099Z,20.76
2017-02-02T00:03:42.594Z,20.79
2017-02-02T00:04:23.103Z,20.83
2017-02-02T00:05:03.597Z,20.78
2017-02-02T00:05:44.086Z,20.76
2017-02-02T00:06:24.585Z,20.79
2017-02-02T00:07:05.081Z,20.82
2017-02-02T00:07:45.580Z,20.81
2017-02-02T00:08:26.074Z,20.82
2017-02-02T00:09:06.571Z,20.76
2017-02-02T00:09:47.065Z,20.83
2017-02-02T00:10:27.561Z,20.88
2017-02-02T00:11:08.070Z,20.79
2017-02-02T00:11:48.544Z,20.83
2017-02-02T00:12:29.043Z,20.9
2017-02-02T00:13:09.542Z,20.83
2017-02-02T00:13:50.030Z,20.82
2017-02-02T00:14:30.545Z,20.85
2017-02-02T00:15:11.038Z,20.79
2017-02-02T00:15:51.537Z,20.83
2017-02-02T00:16:32.039Z,20.79
2017-02-02T00:17:12.542Z,20.75
2017-02-02T00:17:53.033Z,20.88
2017-02-02T00:18:33.529Z,20.85
2017-02-02T00:19:14.019Z,20.76
2017-02-02T00:19:54.506Z,20.78
2017-02-02T00:20:34.997Z,20.76
2017-02-02T00:21:15.505Z,20.78
2017-02-02T00:21:56.003Z,20.81
2017-02-02T00:22:36.501Z,20.83
2017-02-02T00:23:16.982Z,20.82
2017-02-02T00:23:57.481Z,20.74
2017-02-02T00:24:37.973Z,20.79
2017-02-02T00:25:18.469Z,20.76
2017-02-02T00:25:58.959Z,20.61
2017-02-02T00:26:39.474Z,20.61
2017-02-02T00:27:19.987Z,20.74
2017-02-02T00:28:00.480Z,20.61
2017-02-02T00:28:40.992Z,20.78
2017-02-02T00:29:21.464Z,20.71
2017-02-02T00:30:01.955Z,20.78
2017-02-02T00:30:42.440Z,20.75
2017-02-02T00:31:22.936Z,20.72
2017-02-02T00:32:03.437Z,20.75
2017-02-02T00:32:43.937Z,20.66
2017-02-02T00:33:24.424Z,20.71
2017-02-02T00:34:04.911Z,20.76
2017-02-02T00:34:45.413Z,20.85
2017-02-02T00:35:25.905Z,20.81
2017-02-02T00:36:06.412Z,20.78
2017-02-02T00:36:46.920Z,20.78
2017-02-02T00:37:27.416Z,20.76
2017-02-02T00:38:07.915Z,20.83
2017-02-02T00:38:48.413Z,20.78
2017-02-02T00:39:28.903Z,20.81
2017-02-02T00:40:09.391Z,20.75
2017-02-02T00:40:49.885Z,20.78
2017-02-02T00:41:30.379Z,20.78
2017-02-02T00:42:10.870Z,20.76
2017-02-02T00:42:51.363Z,20.75
2017-02-02T00:43:31.856Z,20.82
2017-02-02T00:44:12.350Z,20.81
2017-02-02T00:44:52.855Z,20.74
2017-02-02T00:45:33.346Z,20.82
2017-02-02T00:46:13.854Z,20.83
2017-02-02T00:46:54.350Z,20.82
2017-02-02T00:47:34.852Z,20.82
2017-02-02T00:48:15.341Z,20.79
2017-02-02T00:48:55.829Z,20.79
2017-02-02T00:49:36.322Z,20.78
2017-02-02T00:50:16.829Z,20.83
2017-02-02T00:50:57.328Z,20.76
2017-02-02T00:51:37.833Z,20.78
2017-02-02T00:52:18.314Z,20.71
2017-02-02T00:52:58.826Z,20.74
2017-02-02T00:53:39.309Z,20.72
2017-02-02T00:54:19.804Z,20.83
2017-02-02T00:55:00.302Z,20.78
2017-02-02T00:55:40.795Z,20.71
2017-02-02T00:56:21.291Z,20.81
2017-02-02T00:57:01.795Z,20.74
2017-02-02T00:57:42.290Z,20.71
2017-02-02T00:58:22.783Z,20.82
2017-02-02T00:59:03.279Z,20.72
2017-02-02T00:59:43.767Z,20.74
2017-02-02T01:00:24.259Z,20.74
2017-02-02T01:01:04.744Z,20.72
2017-02-02T01:01:45.245Z,20.76
2017-02-02T01:02:25.736Z,20.79
2017-02-02T01:03:06.236Z,20.83
2017-02-02T01:03:46.739Z,20.79
2017-02-02T01:04:27.232Z,20.79
2017-02-02T01:05:07.721Z,20.76
2017-02-02T01:05:48.209Z,20.81
2017-02-02T01:06:28.712Z,20.79
2017-02-02T01:07:09.193Z,20.83
2017-02-02T01:07:49.687Z,20.81
2017-02-02T01:08:30.194Z,20.74
2017-02-02T01:09:10.686Z,20.75
2017-02-02T01:09:51.179Z,20.63
2017-02-02T01:10:31.687Z,20.71
2017-02-02T01:11:12.171Z,20.67
2017-02-02T01:11:52.654Z,20.63
2017-02-02T01:12:33.149Z,20.68
2017-02-02T01:13:13.726Z,20.75
2017-02-02T01:13:54.220Z,20.63
2017-02-02T01:14:34.717Z,20.78
2017-02-02T01:15:15.233Z,20.72
2017-02-02T01:15:55.724Z,20.72
2017-02-02T01:16:36.216Z,20.68
2017-02-02T01:17:16.707Z,20.66
2017-02-02T01:17:57.200Z,20.63
2017-02-02T01:18:37.697Z,20.68
2017-02-02T01:19:18.180Z,20.76
2017-02-02T01:19:58.673Z,20.68
2017-02-02T01:20:39.171Z,20.68
2017-02-02T01:21:19.668Z,20.82
2017-02-02T01:22:00.146Z,20.72
2017-02-02T01:22:40.639Z,20.75
2017-02-02T01:23:21.138Z,20.64
2017-02-02T01:24:01.625Z,20.63
2017-02-02T01:24:42.119Z,20.68
2017-02-02T01:25:22.612Z,20.71
2017-02-02T01:26:03.113Z,20.78
2017-02-02T01:26:43.617Z,20.74
2017-02-02T01:27:24.115Z,20.82
2017-02-02T01:28:04.612Z,20.75
2017-02-02T01:28:45.106Z,20.79
2017-02-02T01:29:25.646Z,20.79
2017-02-02T01:30:06.108Z,20.78
2017-02-02T01:30:46.614Z,20.72
2017-02-02T01:31:27.104Z,20.74
2017-02-02T01:32:07.589Z,20.64
2017-02-02T01:32:48.080Z,20.66
2017-02-02T01:33:28.582Z,20.81
2017-02-02T01:34:09.063Z,20.75
2017-02-02T01:34:49.559Z,20.75
2017-02-02T01:35:30.057Z,20.64
2017-02-02T01:36:10.548Z,20.58
2017-02-02T01:36:51.037Z,20.6
2017-02-02T01:37:31.527Z,20.6
2017-02-02T01:38:12.032Z,20.68
2017-02-02T01:38:52.529Z,20.74
2017-02-02T01:39:33.021Z,20.78
2017-02-02T01:40:13.513Z,20.71
2017-02-02T01:40:54.005Z,20.67
2017-02-02T01:41:34.501Z,20.68
2017-02-02T01:42:14.987Z,20.88
2017-02-02T01:42:55.476Z,20.82
2017-02-02T01:43:35.987Z,20.82
2017-02-02T01:44:16.459Z,20.85
2017-02-02T01:44:56.946Z,20.81
2017-02-02T01:45:37.429Z,20.71
2017-02-02T01:46:17.932Z,20.71
2017-02-02T01:46:58.416Z,20.74
2017-02-02T01:47:38.903Z,20.71
2017-02-02T01:48:19.398Z,20.63
2017-02-02T01:48:59.894Z,20.64
2017-02-02T01:49:40.386Z,20.83
2017-02-02T01:50:20.879Z,20.74
2017-02-02T01:51:01.394Z,20.71
2017-02-02T01:51:41.870Z,20.82
2017-02-02T01:52:22.388Z,20.71
2017-02-02T01:53:02.873Z,20.71
2017-02-02T01:53:43.361Z,20.61
2017-02-02T01:54:23.858Z,20.74
2017-02-02T01:55:04.360Z,20.74
2017-02-02T01:55:44.849Z,20.76
2017-02-02T01:56:25.349Z,20.75
2017-02-02T01:57:05.838Z,20.67
2017-02-02T01:57:46.333Z,20.81
2017-02-02T01:58:26.828Z,20.71
2017-02-02T01:59:07.312Z,20.78
2017-02-02T01:59:47.811Z,20.79
2017-02-02T02:00:28.318Z,20.76
2017-02-02T02:01:08.817Z,20.81
2017-02-02T02:01:49.309Z,20.76
2017-02-02T02:02:29.800Z,20.82
2017-02-02T02:03:10.298Z,20.72
2017-02-02T02:03:50.791Z,20.68
2017-02-02T02:04:31.283Z,20.78
2017-02-02T02:05:11.777Z,20.67
2017-02-02T02:05:52.269Z,20.78
2017-02-02T02:06:32.780Z,20.63
2017-02-02T02:07:13.270Z,20.64
2017-02-02T02:07:53.768Z,20.66
2017-02-02T02:08:34.267Z,20.66
2017-02-02T02:09:14.784Z,20.71
2017-02-02T02:09:55.270Z,20.66
2017-02-02T02:10:35.768Z,20.68
2017-02-02T02:11:16.263Z,20.64
2017-02-02T02:11:56.752Z,20.64
2017-02-02T02:12:37.256Z,20.72
2017-02-02T02:13:17.753Z,20.75
2017-02-02T02:13:58.290Z,20.67
2017-02-02T02:15:55.980Z,20.66
2017-02-02T02:16:36.473Z,20.64
2017-02-02T02:17:16.966Z,20.68
2017-02-02T02:17:57.465Z,20.63
2017-02-02T02:18:37.963Z,20.64
2017-02-02T02:19:18.462Z,20.68
2017-02-02T02:19:58.954Z,20.78
2017-02-02T02:20:39.454Z,20.78
2017-02-02T02:21:19.943Z,20.72
2017-02-02T02:22:00.434Z,20.68
2017-02-02T02:22:40.924Z,20.74
2017-02-02T02:23:21.417Z,20.68
2017-02-02T02:24:01.908Z,20.64
2017-02-02T02:24:42.394Z,20.76
2017-02-02T02:25:22.885Z,20.71
2017-02-02T02:26:03.384Z,20.71
2017-02-02T02:26:43.876Z,20.67
2017-02-02T02:27:24.376Z,20.66
2017-02-02T02:28:04.880Z,20.78
2017-02-02T02:28:45.358Z,20.79
2017-02-02T02:29:25.841Z,20.72
2017-02-02T02:30:06.330Z,20.72
2017-02-02T02:30:46.825Z,20.74
2017-02-02T02:31:27.325Z,20.64
2017-02-02T02:32:07.803Z,20.78
2017-02-02T02:32:48.284Z,20.74
2017-02-02T02:33:28.778Z,20.72
2017-02-02T02:34:09.268Z,20.61
2017-02-02T02:34:49.764Z,20.76
2017-02-02T02:35:30.250Z,20.74
2017-02-02T02:36:10.737Z,20.64
2017-02-02T02:36:51.225Z,20.75
2017-02-02T02:37:31.714Z,20.74
2017-02-02T02:38:12.205Z,20.78
2017-02-02T02:38:52.698Z,20.63
2017-02-02T02:39:33.196Z,20.76
2017-02-02T02:40:13.692Z,20.78
2017-02-02T02:40:54.185Z,20.78
2017-02-02T02:41:34.683Z,20.71
2017-02-02T02:42:15.185Z,20.66
2017-02-02T02:42:55.684Z,20.6
2017-02-02T02:43:36.191Z,20.71
2017-02-02T02:44:16.686Z,20.68
2017-02-02T02:44:57.172Z,20.74
2017-02-02T02:45:37.665Z,20.71
2017-02-02T02:46:18.157Z,20.81
2017-02-02T02:46:58.652Z,20.74
2017-02-02T02:47:39.139Z,20.81
2017-02-02T02:48:19.620Z,20.72
2017-02-02T02:49:00.129Z,20.67
2017-02-02T02:49:40.623Z,20.74
2017-02-02T02:50:21.110Z,20.63
2017-02-02T02:51:01.604Z,20.66
2017-02-02T02:51:42.099Z,20.72
2017-02-02T02:52:22.587Z,20.76
2017-02-02T02:53:03.080Z,20.71
2017-02-02T02:53:43.575Z,20.72
2017-02-02T02:54:24.071Z,20.72
2017-02-02T02:55:04.587Z,20.81
2017-02-02T02:55:45.082Z,20.64
2017-02-02T02:56:25.578Z,20.76
2017-02-02T02:57:06.069Z,20.79
2017-02-02T02:57:46.568Z,20.79
2017-02-02T02:58:27.059Z,20.67
2017-02-02T02:59:07.548Z,20.72
2017-02-02T02:59:48.045Z,20.76
2017-02-02T03:00:28.537Z,20.72
2017-02-02T03:01:09.025Z,20.61
2017-02-02T03:01:49.514Z,20.66
2017-02-02T03:02:29.996Z,20.68
2017-02-02T03:03:10.490Z,20.61
2017-02-02T03:03:50.982Z,20.64
2017-02-02T03:04:31.471Z,20.67
2017-02-02T03:05:11.954Z,20.63
2017-02-02T03:05:52.449Z,20.61
2017-02-02T03:06:32.938Z,20.64
2017-02-02T03:07:13.432Z,20.67
2017-02-02T03:07:53.926Z,20.56
2017-02-02T03:08:34.431Z,20.57
2017-02-02T03:09:14.916Z,20.66
2017-02-02T03:09:55.410Z,20.63
2017-02-02T03:10:35.906Z,20.64
2017-02-02T03:11:16.390Z,20.61
2017-02-02T03:11:56.878Z,20.66
2017-02-02T03:12:37.365Z,20.78
2017-02-02T03:13:17.867Z,20.75
2017-02-02T03:13:58.357Z,20.68
2017-02-02T03:14:38.854Z,20.67
2017-02-02T03:15:19.354Z,20.74
2017-02-02T03:15:59.840Z,20.66
2017-02-02T03:16:40.351Z,20.72
2017-02-02T03:17:20.841Z,20.64
2017-02-02T03:18:01.326Z,20.6
2017-02-02T03:18:41.809Z,20.61
2017-02-02T03:19:22.301Z,20.64
2017-02-02T03:20:02.801Z,20.63
2017-02-02T03:20:43.288Z,20.67
2017-02-02T03:21:23.787Z,20.64
2017-02-02T03:22:04.289Z,20.63
2017-02-02T03:22:44.787Z,20.66
2017-02-02T03:23:25.286Z,20.64
2017-02-02T03:24:05.775Z,20.63
2017-02-02T03:24:46.264Z,20.68
2017-02-02T03:25:26.760Z,20.64
2017-02-02T03:26:07.248Z,20.63
2017-02-02T03:26:47.743Z,20.68
2017-02-02T03:27:28.238Z,20.6
2017-02-02T03:28:08.730Z,20.74
2017-02-02T03:28:49.232Z,20.75
2017-02-02T03:29:29.728Z,20.61
2017-02-02T03:30:10.224Z,20.67
2017-02-02T03:30:50.728Z,20.75
2017-02-02T03:31:31.220Z,20.66
2017-02-02T03:32:11.733Z,20.6
2017-02-02T03:32:52.234Z,20.61
2017-02-02T03:33:32.721Z,20.61
2017-02-02T03:34:13.230Z,20.61
2017-02-02T03:34:53.707Z,20.64
2017-02-02T03:35:34.202Z,20.63
2017-02-02T03:36:14.689Z,20.64
2017-02-02T03:36:55.186Z,20.61
2017-02-02T03:37:35.677Z,20.64
2017-02-02T03:38:16.166Z,20.66
2017-02-02T03:38:56.658Z,20.64
2017-02-02T03:39:37.162Z,20.66
2017-02-02T03:40:17.649Z,20.64
2017-02-02T03:40:58.142Z,20.61
2017-02-02T03:41:38.642Z,20.61
2017-02-02T03:42:19.130Z,20.67
2017-02-02T03:42:59.614Z,20.6
2017-02-02T03:43:40.096Z,20.58
2017-02-02T03:44:20.593Z,20.66
2017-02-02T03:45:01.090Z,20.61
2017-02-02T03:45:41.571Z,20.66
2017-02-02T03:46:22.066Z,20.6
2017-02-02T03:47:02.566Z,20.67
2017-02-02T03:47:43.062Z,20.78
2017-02-02T03:48:23.565Z,20.66
2017-02-02T03:49:04.059Z,20.74
2017-02-02T03:49:44.543Z,20.74
2017-02-02T03:50:25.031Z,20.63
2017-02-02T03:51:05.536Z,20.63
2017-02-02T03:51:46.017Z,20.64
2017-02-02T03:52:26.505Z,20.74
2017-02-02T03:53:07.006Z,20.64
2017-02-02T03:53:47.498Z,20.67
2017-02-02T03:54:27.991Z,20.6
2017-02-02T03:55:08.481Z,20.61
2017-02-02T03:55:48.979Z,20.71
2017-02-02T03:56:29.470Z,20.66
2017-02-02T03:57:09.958Z,20.63
2017-02-02T03:57:50.453Z,20.66
2017-02-02T03:58:30.974Z,20.74
2017-02-02T03:59:11.451Z,20.64
2017-02-02T03:59:51.942Z,20.71
2017-02-02T04:00:32.436Z,20.68
2017-02-02T04:01:12.944Z,20.63
2017-02-02T04:01:53.430Z,20.66
2017-02-02T04:02:33.950Z,20.6
2017-02-02T04:03:14.447Z,20.66
2017-02-02T04:03:54.938Z,20.61
2017-02-02T04:04:35.439Z,20.6
2017-02-02T04:05:15.939Z,20.68
2017-02-02T04:05:56.423Z,20.6
2017-02-02T04:06:36.915Z,20.63
2017-02-02T04:07:17.418Z,20.66
2017-02-02T04:07:57.896Z,20.63
2017-02-02T04:08:38.377Z,20.6
2017-02-02T04:09:18.869Z,20.63
2017-02-02T04:09:59.362Z,20.67
2017-02-02T04:10:39.859Z,20.61
2017-02-02T04:11:20.341Z,20.66
2017-02-02T04:12:00.840Z,20.6
2017-02-02T04:12:41.336Z,20.67
2017-02-02T04:13:21.824Z,20.58
2017-02-02T04:14:02.329Z,20.64
2017-02-02T04:14:42.810Z,20.68
2017-02-02T04:15:23.301Z,20.71
2017-02-02T04:16:03.789Z,20.64
2017-02-02T04:16:44.282Z,20.61
2017-02-02T04:17:24.770Z,20.58
2017-02-02T04:18:05.277Z,20.67
2017-02-02T04:18:45.770Z,20.63
2017-02-02T04:19:26.278Z,20.64
2017-02-02T04:20:06.783Z,20.58
2017-02-02T04:20:47.317Z,20.57
2017-02-02T04:21:27.803Z,20.44
2017-02-02T04:22:08.296Z,20.58
2017-02-02T04:22:48.789Z,20.64
2017-02-02T04:23:29.280Z,20.54
2017-02-02T04:24:09.774Z,20.6
2017-02-02T04:24:50.262Z,20.76
2017-02-02T04:25:30.751Z,20.64
2017-02-02T04:26:11.244Z,20.78
2017-02-02T04:26:51.733Z,20.63
2017-02-02T04:27:32.229Z,20.66
2017-02-02T04:28:12.726Z,20.72
2017-02-02T04:28:53.223Z,20.67
2017-02-02T04:29:33.700Z,20.61
2017-02-02T04:30:14.194Z,20.66
2017-02-02T04:30:54.687Z,20.61
2017-02-02T04:31:35.181Z,20.57
2017-02-02T04:32:15.664Z,20.61
2017-02-02T04:32:56.160Z,20.56
2017-02-02T04:33:36.660Z,20.57
2017-02-02T04:34:17.174Z,20.66
2017-02-02T04:34:57.639Z,20.58
2017-02-02T04:35:38.133Z,20.51
2017-02-02T04:36:18.628Z,20.57
2017-02-02T04:36:59.119Z,20.51
2017-02-02T04:37:39.612Z,20.6
2017-02-02T04:38:20.108Z,20.64
2017-02-02T04:39:00.607Z,20.58
2017-02-02T04:39:41.110Z,20.64
2017-02-02T04:40:21.598Z,20.61
2017-02-02T04:41:02.100Z,20.64
2017-02-02T04:41:42.583Z,20.63
2017-02-02T04:42:23.075Z,20.63
2017-02-02T04:43:03.561Z,20.67
2017-02-02T04:43:44.055Z,20.63
2017-02-02T04:44:24.549Z,20.58
2017-02-02T04:45:05.038Z,20.67
2017-02-02T04:45:45.525Z,20.63
2017-02-02T04:46:26.003Z,20.63
2017-02-02T04:47:06.499Z,20.57
2017-02-02T04:47:46.994Z,20.63
2017-02-02T04:48:27.482Z,20.61
2017-02-02T04:49:07.969Z,20.6
2017-02-02T04:49:48.458Z,20.61
2017-02-02T04:50:28.948Z,20.56
2017-02-02T04:51:09.443Z,20.64
2017-02-02T04:51:49.937Z,20.64
2017-02-02T04:52:30.439Z,20.51
2017-02-02T04:53:10.936Z,20.51
2017-02-02T04:53:51.445Z,20.56
2017-02-02T04:54:31.937Z,20.6
2017-02-02T04:55:12.441Z,20.57
2017-02-02T04:55:52.929Z,20.6
2017-02-02T04:56:33.435Z,20.6
2017-02-02T04:57:13.920Z,20.58
2017-02-02T04:57:54.411Z,20.63
2017-02-02T04:58:34.897Z,20.64
2017-02-02T04:59:15.399Z,20.61
2017-02-02T04:59:55.887Z,20.64
2017-02-02T05:00:36.384Z,20.57
2017-02-02T05:01:16.881Z,20.66
2017-02-02T05:01:57.371Z,20.49
2017-02-02T05:02:37.859Z,20.63
2017-02-02T05:03:18.351Z,20.64
2017-02-02T05:03:58.846Z,20.58
2017-02-02T05:04:39.337Z,20.6
2017-02-02T05:05:19.831Z,20.61
2017-02-02T05:06:00.329Z,20.63
2017-02-02T05:06:40.827Z,20.64
2017-02-02T05:07:21.324Z,20.56
2017-02-02T05:08:01.823Z,20.57
2017-02-02T05:08:42.321Z,20.56
2017-02-02T05:09:22.807Z,20.61
2017-02-02T05:10:03.300Z,20.66
2017-02-02T05:10:43.795Z,20.57
2017-02-02T05:11:24.290Z,20.61
2017-02-02T05:12:04.779Z,20.58
2017-02-02T05:12:45.273Z,20.56
2017-02-02T05:13:25.765Z,20.61
2017-02-02T05:14:06.261Z,20.61
2017-02-02T05:14:46.760Z,20.57
2017-02-02T05:15:27.266Z,20.58
2017-02-02T05:16:07.773Z,20.6
2017-02-02T05:16:48.269Z,20.63
2017-02-02T05:17:28.764Z,20.64
2017-02-02T05:18:09.260Z,20.61
2017-02-02T05:18:49.761Z,20.56
2017-02-02T05:19:30.255Z,20.66
2017-02-02T05:20:10.742Z,20.61
2017-02-02T05:20:51.238Z,20.67
2017-02-02T05:21:31.732Z,20.72
2017-02-02T05:22:12.221Z,20.63
2017-02-02T05:22:52.735Z,20.61
2017-02-02T05:23:33.203Z,20.58
2017-02-02T05:25:10.706Z,20.64
2017-02-02T05:25:51.204Z,20.58
2017-02-02T05:26:31.697Z,20.58
2017-02-02T05:27:12.184Z,20.58
2017-02-02T05:27:52.695Z,20.66
2017-02-02T05:28:33.190Z,20.64
2017-02-02T05:29:13.677Z,20.66
2017-02-02T05:29:54.194Z,20.64
2017-02-02T05:30:34.695Z,20.63
2017-02-02T05:31:15.189Z,20.66
2017-02-02T05:31:55.688Z,20.61
2017-02-02T05:32:36.184Z,20.63
2017-02-02T05:33:16.682Z,20.58
2017-02-02T05:33:57.180Z,20.64
2017-02-02T05:34:37.682Z,20.57
2017-02-02T05:35:18.184Z,20.61
2017-02-02T05:35:58.677Z,20.68
2017-02-02T05:36:39.164Z,20.61
2017-02-02T05:37:19.651Z,20.63
2017-02-02T05:38:00.139Z,20.57
2017-02-02T05:38:40.632Z,20.51
2017-02-02T05:39:21.122Z,20.56
2017-02-02T05:40:01.605Z,20.54
2017-02-02T05:40:42.093Z,20.54
2017-02-02T05:41:22.579Z,20.51
2017-02-02T05:42:03.065Z,20.57
2017-02-02T05:42:43.560Z,20.57
2017-02-02T05:43:24.059Z,20.56
2017-02-02T05:44:04.548Z,20.53
2017-02-02T05:44:45.029Z,20.56
2017-02-02T05:45:25.534Z,20.56
2017-02-02T05:46:06.019Z,20.54
2017-02-02T05:46:46.507Z,20.56
2017-02-02T05:47:26.995Z,20.49
2017-02-02T05:48:07.487Z,20.57
2017-02-02T05:48:48.010Z,20.56
2017-02-02T05:49:28.466Z,20.57
2017-02-02T05:50:08.958Z,20.61
2017-02-02T05:50:49.464Z,20.61
2017-02-02T05:51:29.970Z,20.66
2017-02-02T05:52:10.414Z,20.66
2017-02-02T05:52:50.909Z,20.64
2017-02-02T05:53:31.401Z,20.56
2017-02-02T05:54:11.898Z,20.61
2017-02-02T05:54:52.385Z,20.44
2017-02-02T05:55:32.882Z,20.51
2017-02-02T05:56:13.377Z,20.6
2017-02-02T05:56:53.876Z,20.57
2017-02-02T05:57:34.368Z,20.61
2017-02-02T05:58:14.873Z,20.53
2017-02-02T05:58:55.357Z,20.57
2017-02-02T05:59:35.837Z,20.61
2017-02-02T06:00:16.329Z,20.61
2017-02-02T06:00:56.828Z,20.53
2017-02-02T06:01:37.318Z,20.64
2017-02-02T06:02:17.801Z,20.63
2017-02-02T06:02:58.286Z,20.57
2017-02-02T06:03:38.775Z,20.58
2017-02-02T06:04:19.285Z,20.56
2017-02-02T06:04:59.776Z,20.54
2017-02-02T06:05:40.270Z,20.53
2017-02-02T06:06:20.762Z,20.58
2017-02-02T06:07:01.246Z,20.57
2017-02-02T06:07:41.744Z,20.57
2017-02-02T06:08:22.238Z,20.53
2017-02-02T06:09:02.720Z,20.51
2017-02-02T06:09:43.212Z,20.58
2017-02-02T06:10:23.706Z,20.53
2017-02-02T06:11:04.196Z,20.51
2017-02-02T06:11:44.693Z,20.48
2017-02-02T06:12:25.187Z,20.57
2017-02-02T06:13:05.683Z,20.51
2017-02-02T06:13:46.173Z,20.57
2017-02-02T06:14:26.685Z,20.53
2017-02-02T06:15:07.176Z,20.57
2017-02-02T06:15:47.677Z,20.58
2017-02-02T06:16:28.158Z,20.63
2017-02-02T06:17:08.647Z,20.53
2017-02-02T06:17:49.153Z,20.48
2017-02-02T06:18:29.647Z,20.53
2017-02-02T06:19:10.127Z,20.56
2017-02-02T06:19:50.617Z,20.57
2017-02-02T06:20:31.103Z,20.53
2017-02-02T06:21:11.598Z,20.58
2017-02-02T06:21:52.098Z,20.54
2017-02-02T06:22:32.577Z,20.48
2017-02-02T06:23:13.066Z,20.61
2017-02-02T06:23:53.566Z,20.53
2017-02-02T06:24:34.048Z,20.53
2017-02-02T06:25:14.544Z,20.49
2017-02-02T06:25:55.027Z,20.53
2017-02-02T06:26:35.522Z,20.48
2017-02-02T06:27:16.019Z,20.49
2017-02-02T06:27:56.503Z,20.58
2017-02-02T06:28:37.021Z,20.56
2017-02-02T06:29:17.492Z,20.57
2017-02-02T06:29:57.982Z,20.66
2017-02-02T06:30:38.469Z,20.49
2017-02-02T06:31:18.956Z,20.53
2017-02-02T06:31:59.445Z,20.53
2017-02-02T06:32:39.937Z,20.57
2017-02-02T06:33:20.424Z,20.51
2017-02-02T06:34:00.922Z,20.57
2017-02-02T06:34:41.415Z,20.51
2017-02-02T06:35:21.906Z,20.58
2017-02-02T06:36:02.404Z,20.66
2017-02-02T06:36:42.883Z,20.64
2017-02-02T06:37:23.371Z,20.61
2017-02-02T06:38:03.887Z,20.68
2017-02-02T06:38:44.366Z,20.63
2017-02-02T06:39:24.858Z,20.67
2017-02-02T06:40:05.357Z,20.53
2017-02-02T06:40:45.849Z,20.56
2017-02-02T06:41:26.353Z,20.64
2017-02-02T06:42:06.850Z,20.51
2017-02-02T06:42:47.348Z,20.53
2017-02-02T06:43:27.837Z,20.56
2017-02-02T06:44:08.329Z,20.58
2017-02-02T06:44:48.820Z,20.48
2017-02-02T06:45:29.315Z,20.57
2017-02-02T06:46:09.805Z,20.58
2017-02-02T06:46:50.295Z,20.56
2017-02-02T06:47:30.792Z,20.51
2017-02-02T06:48:11.276Z,20.58
2017-02-02T06:48:51.769Z,20.56
2017-02-02T06:49:32.259Z,20.63
2017-02-02T06:50:12.759Z,20.56
2017-02-02T06:50:53.241Z,20.51
2017-02-02T06:51:33.734Z,20.51
2017-02-02T06:52:14.225Z,20.6
2017-02-02T06:52:54.714Z,20.64
2017-02-02T06:53:35.362Z,20.56
2017-02-02T06:54:15.925Z,20.53
2017-02-02T06:54:56.416Z,20.56
2017-02-02T06:55:36.912Z,20.64
2017-02-02T06:56:17.404Z,20.58
2017-02-02T06:56:57.889Z,20.57
2017-02-02T06:57:38.509Z,20.54
2017-02-02T06:58:19.005Z,20.54
2017-02-02T06:58:59.660Z,20.64
2017-02-02T06:59:40.197Z,20.57
2017-02-02T07:00:20.663Z,20.58
2017-02-02T07:01:01.155Z,20.57
2017-02-02T07:01:41.651Z,20.58
2017-02-02T07:02:22.140Z,20.58
2017-02-02T07:03:02.635Z,20.64
2017-02-02T07:03:43.124Z,20.58
2017-02-02T07:04:23.626Z,20.56
2017-02-02T07:05:04.136Z,20.67
2017-02-02T07:05:44.632Z,20.6
2017-02-02T07:06:25.124Z,20.64
2017-02-02T07:07:05.636Z,20.58
2017-02-02T07:07:46.127Z,20.6
2017-02-02T07:08:26.623Z,20.66
2017-02-02T07:09:07.109Z,20.61
2017-02-02T07:09:47.605Z,20.53
2017-02-02T07:10:28.096Z,20.53
2017-02-02T07:11:08.598Z,20.53
2017-02-02T07:11:49.086Z,20.53
2017-02-02T07:12:29.580Z,20.58
2017-02-02T07:13:10.070Z,20.56
2017-02-02T07:13:50.566Z,20.57
2017-02-02T07:14:31.053Z,20.57
2017-02-02T07:15:11.543Z,20.64
2017-02-02T07:15:52.042Z,20.58
2017-02-02T07:16:32.528Z,20.57
2017-02-02T07:17:13.017Z,20.56
2017-02-02T07:17:53.520Z,20.61
2017-02-02T07:18:34.002Z,20.57
2017-02-02T07:19:14.493Z,20.58
2017-02-02T07:19:54.977Z,20.41
2017-02-02T07:20:35.468Z,20.56
2017-02-02T07:21:15.963Z,20.56
2017-02-02T07:21:56.452Z,20.54
2017-02-02T07:22:36.946Z,20.51
2017-02-02T07:23:17.438Z,20.63
2017-02-02T07:23:57.936Z,20.53
2017-02-02T07:24:38.430Z,20.49
2017-02-02T07:25:18.936Z,20.53
2017-02-02T07:25:59.417Z,20.57
2017-02-02T07:26:39.912Z,20.6
2017-02-02T07:27:20.409Z,20.64
2017-02-02T07:28:00.899Z,20.66
2017-02-02T07:28:41.385Z,20.64
2017-02-02T07:29:21.868Z,20.56
2017-02-02T07:30:02.363Z,20.58
2017-02-02T07:30:42.851Z,20.58
2017-02-02T07:31:23.345Z,20.53
2017-02-02T07:32:03.828Z,20.57
2017-02-02T07:32:44.312Z,20.49
2017-02-02T07:33:24.818Z,20.49
2017-02-02T07:34:05.309Z,20.58
2017-02-02T07:34:45.804Z,20.56
2017-02-02T07:35:26.296Z,20.54
2017-02-02T07:36:06.783Z,20.49
2017-02-02T07:36:47.283Z,20.56
2017-02-02T07:37:27.771Z,20.53
2017-02-02T07:38:08.277Z,20.56
2017-02-02T07:38:48.760Z,20.46
2017-02-02T07:39:29.265Z,20.54
2017-02-02T07:40:09.771Z,20.6
2017-02-02T07:40:50.266Z,20.57
2017-02-02T07:41:30.753Z,20.53
2017-02-02T07:42:11.250Z,20.6
2017-02-02T07:42:51.744Z,20.58
2017-02-02T07:43:32.231Z,20.56
2017-02-02T07:44:12.719Z,20.57
2017-02-02T07:44:53.215Z,20.56
2017-02-02T07:45:33.708Z,20.49
2017-02-02T07:46:14.195Z,20.67
2017-02-02T07:46:54.685Z,20.51
2017-02-02T07:47:35.188Z,20.53
2017-02-02T07:48:15.672Z,20.58
2017-02-02T07:48:56.162Z,20.54
2017-02-02T07:49:36.666Z,20.49
2017-02-02T07:50:17.167Z,20.46
2017-02-02T07:50:57.645Z,20.53
2017-02-02T07:51:38.132Z,20.56
2017-02-02T07:52:18.630Z,20.53
2017-02-02T07:52:59.119Z,20.54
2017-02-02T07:53:39.603Z,20.57
2017-02-02T07:54:20.100Z,20.64
2017-02-02T07:55:00.591Z,20.63
2017-02-02T07:55:41.079Z,20.64
2017-02-02T07:56:21.562Z,20.68
2017-02-02T07:57:02.056Z,20.58
2017-02-02T07:57:42.573Z,20.58
2017-02-02T07:58:23.077Z,20.56
2017-02-02T07:59:03.565Z,20.56
2017-02-02T07:59:44.051Z,20.56
2017-02-02T08:00:24.547Z,20.54
2017-02-02T08:01:05.043Z,20.54
2017-02-02T08:01:45.527Z,20.56
2017-02-02T08:02:26.016Z,20.56
2017-02-02T08:03:06.522Z,20.6
2017-02-02T08:03:47.010Z,20.64
2017-02-02T08:04:27.509Z,20.64
2017-02-02T08:05:08.005Z,20.66
2017-02-02T08:05:48.501Z,20.58
2017-02-02T08:06:29.004Z,20.6
2017-02-02T08:07:09.490Z,20.71
2017-02-02T08:07:49.989Z,20.66
2017-02-02T08:08:30.481Z,20.64
2017-02-02T08:09:10.954Z,20.68
2017-02-02T08:09:51.461Z,20.6
2017-02-02T08:10:31.955Z,20.63
2017-02-02T08:11:12.452Z,20.67
2017-02-02T08:11:52.950Z,20.66
2017-02-02T08:12:33.440Z,20.64
2017-02-02T08:13:13.957Z,20.61
2017-02-02T08:13:54.448Z,20.68
2017-02-02T08:14:34.934Z,20.63
2017-02-02T08:15:15.442Z,20.56
2017-02-02T08:15:55.941Z,20.61
2017-02-02T08:16:36.504Z,20.58
2017-02-02T08:17:16.998Z,20.72
2017-02-02T08:17:57.497Z,20.61
2017-02-02T08:18:38.004Z,20.67
2017-02-02T08:19:18.525Z,20.64
2017-02-02T08:19:59.018Z,20.68
2017-02-02T08:20:39.525Z,20.64
2017-02-02T08:21:20.016Z,20.71
2017-02-02T08:22:00.513Z,20.64
2017-02-02T08:22:41.027Z,20.63
2017-02-02T08:23:21.518Z,20.71
2017-02-02T08:24:02.017Z,20.78
2017-02-02T08:24:42.501Z,20.67
2017-02-02T08:25:22.996Z,20.74
2017-02-02T08:26:03.507Z,20.74
2017-02-02T08:26:44.014Z,20.74
2017-02-02T08:27:24.506Z,20.79
2017-02-02T08:28:04.996Z,20.76
2017-02-02T08:28:45.491Z,20.72
2017-02-02T08:29:25.991Z,20.63
2017-02-02T08:30:06.486Z,20.74
2017-02-02T08:30:46.980Z,20.61
2017-02-02T08:31:27.474Z,20.75
2017-02-02T08:32:07.974Z,20.78
2017-02-02T08:32:48.467Z,20.68
2017-02-02T08:33:28.988Z,20.64
2017-02-02T08:34:09.453Z,20.76
2017-02-02T08:34:49.947Z,20.67
2017-02-02T08:35:30.444Z,20.68
2017-02-02T08:36:10.936Z,20.72
2017-02-02T08:36:51.432Z,20.76
2017-02-02T08:37:31.945Z,20.79
2017-02-02T08:38:12.438Z,20.81
2017-02-02T08:38:52.939Z,20.78
2017-02-02T08:39:33.424Z,20.78
2017-02-02T08:40:13.922Z,20.72
2017-02-02T08:40:54.405Z,20.83
2017-02-02T08:41:34.892Z,20.71
2017-02-02T08:42:15.384Z,20.72
2017-02-02T08:42:55.878Z,20.71
2017-02-02T08:43:36.381Z,20.74
2017-02-02T08:44:16.881Z,20.79